Surface/Precipitation History
08/29/2016 12:48  to  8/30/2016 12:48
Change End Date:
Date/Time
(MDT)
Sf
Temp Chem Water Layer Surface Precipitation
Sfc Pvt Sub Frz Factor Pct Dpth DpthThk IcePct Cond Salin FI Type Intens Accum Rate
08/30/2016 12:40 Dry 100.8F - 71F - - - - - - 34 mhos 1864 - None None - -
08/30/2016 12:35 Dry 101.7F - 71F - - - - - - 34 mhos 1854 - None None - -
08/30/2016 12:25 Dry 99.7F - 71F - - - - - - 35 mhos 1907 - None None - -
08/30/2016 12:25 Dry 99.7F - 71F - - - - - - 35 mhos 1907 - None None - -
08/30/2016 12:15 Dry 97.9F - 71F - - - - - - 35 mhos 1957 - None None - -
08/30/2016 12:10 Dry 95.4F - 71F - - - - - - 35 mhos 2011 - None None - -
08/30/2016 12:05 Dry 90.9F - 71F - - - - - - 36 mhos 2113 - None None - -
08/30/2016 11:55 Dry 91.0F - 71F - - - - - - 36 mhos 2110 - None None - -
08/30/2016 11:55 Dry 91.0F - 71F - - - - - - 36 mhos 2110 - None None - -
08/30/2016 11:45 Dry 97.0F - 71F - - - - - - 35 mhos 1971 - None None - -
08/30/2016 11:40 Dry 95.4F - 71F - - - - - - 35 mhos 2011 - None None - -
08/30/2016 11:35 Dry 94.3F - 71F - - - - - - 36 mhos 2042 - None None - -
08/30/2016 11:25 Dry 93.0F - 71F - - - - - - 36 mhos 2077 - None None - -
08/30/2016 11:25 Dry 93.0F - 71F - - - - - - 36 mhos 2077 - None None - -
08/30/2016 11:14 Dry 90.9F - 71F - - - - - - 36 mhos 2128 - None None - -
Date/Time
(MDT)
Sf
Temp Chem Water Layer Surface Precipitation
Sfc Pvt Sub Frz Factor Pct Dpth DpthThk IcePct Cond Salin FI Type Intens Accum Rate
08/30/2016 11:10 Dry 90.0F - 71F - - - - - - 36 mhos 2158 - None None - -
08/30/2016 11:04 Dry 88.7F - 71F - - - - - - 36 mhos 2198 - None None - -
08/30/2016 10:55 Dry 87.1F - 71F - - - - - - 37 mhos 2243 - None None - -
08/30/2016 10:54 Dry 86.7F - 71F - - - - - - 37 mhos 2249 - None None - -
08/30/2016 10:44 Dry 84.9F - 71F - - - - - - 37 mhos 2301 - None None - -
08/30/2016 10:40 Dry 84.2F - 71F - - - - - - 37 mhos 2333 - None None - -
08/30/2016 10:34 Dry 83.3F - 71F - - - - - - 37 mhos 2352 - None None - -
08/30/2016 10:25 Dry 81.5F - 71F - - - - - - 38 mhos 2425 - None None - -
08/30/2016 10:24 Dry 81.3F - 71F - - - - - - 38 mhos 2428 - None None - -
08/30/2016 10:14 Dry 79.0F - 71F - - - - - - 38 mhos 2498 - None None - -
08/30/2016 10:10 Dry 77.9F - 71F - - - - - - 38 mhos 2523 - None None - -
08/30/2016 10:04 Dry 76.8F - 71F - - - - - - 38 mhos 2568 - None None - -
08/30/2016 09:55 Dry 74.7F - 71F - - - - - - 38 mhos 2641 - None None - -
08/30/2016 09:54 Dry 74.5F - 71F - - - - - - 38 mhos 2648 - None None - -
08/30/2016 09:44 Dry 72.0F - 71F - - - - - - 39 mhos 2734 - None None - -
Date/Time
(MDT)
Sf
Temp Chem Water Layer Surface Precipitation
Sfc Pvt Sub Frz Factor Pct Dpth DpthThk IcePct Cond Salin FI Type Intens Accum Rate
08/30/2016 09:40 Dry 71.2F - 71F - - - - - - 39 mhos 2751 - None None - -
08/30/2016 09:34 Dry 70.3F - 71F - - - - - - 39 mhos 2798 - None None - -
08/30/2016 09:25 Dry 68.7F - 71F - - - - - - 39 mhos 2847 - None None - -
08/30/2016 09:24 Dry 68.4F - 71F - - - - - - 39 mhos 2856 - None None - -
08/30/2016 09:14 Dry 65.8F - 72F - - - - - - 39 mhos 2953 - None None - -
08/30/2016 09:10 Dry 64.8F - 72F - - - - - - 39 mhos 2988 - None None - -
08/30/2016 09:04 Dry 63.5F - 72F - - - - - - 40 mhos 3052 - None None - -
08/30/2016 08:55 Dry 62.1F - 72F - - - - - - 40 mhos 3105 - None None - -
08/30/2016 08:54 Dry 61.9F - 72F - - - - - - 40 mhos 3110 - None None - -
08/30/2016 08:44 Dry 60.1F - 72F - - - - - - 40 mhos 3196 - None None - -
08/30/2016 08:40 Dry 59.5F - 72F - - - - - - 40 mhos 3218 - None None - -
08/30/2016 08:34 Dry 58.3F - 72F - - - - - - 40 mhos 3265 - None None - -
08/30/2016 08:25 Dry 56.7F - 72F - - - - - - 40 mhos 3326 - None None - -
08/30/2016 08:24 Dry 56.5F - 72F - - - - - - 40 mhos 3332 - None None - -
08/30/2016 08:14 Dry 55.0F - 72F - - - - - - 40 mhos 3422 - None None - -
Date/Time
(MDT)
Sf
Temp Chem Water Layer Surface Precipitation
Sfc Pvt Sub Frz Factor Pct Dpth DpthThk IcePct Cond Salin FI Type Intens Accum Rate
08/30/2016 08:10 Dry 54.5F - 72F - - - - - - 40 mhos 3442 - None None - -
08/30/2016 08:03 Dry 53.6F - 72F - - - - - - 40 mhos 3482 - None None - -
08/30/2016 07:55 Dry 52.5F - 72F - - - - - - 40 mhos 3529 - None None - -
08/30/2016 07:53 Dry 52.3F - 72F - - - - - - 40 mhos 3536 - None None - -
08/30/2016 07:43 Dry 51.3F - 72F - - - - - - 40 mhos 3579 - None None - -
08/30/2016 07:40 Dry 50.9F - 72F - - - - - - 40 mhos 3600 - None None - -
08/30/2016 07:33 Dry 50.4F - 72F - - - - - - 40 mhos 3622 - None None - -
08/30/2016 07:25 Dry 50.0F - 72F - - - - - - 40 mhos 3644 - None None - -
08/30/2016 07:23 Dry 49.8F - 72F - - - - - - 40 mhos 3682 - None None - -
08/30/2016 07:13 Dry 49.5F - 73F - - - - - - 40 mhos 3697 - None None - -
08/30/2016 07:10 Dry 49.5F - 73F - - - - - - 40 mhos 3697 - None None - -
08/30/2016 07:03 Dry 49.5F - 73F - - - - - - 40 mhos 3666 - None None - -
08/30/2016 06:55 Dry 49.8F - 73F - - - - - - 40 mhos 3682 - None None - -
08/30/2016 06:53 Dry 49.6F - 73F - - - - - - 40 mhos 3689 - None None - -
08/30/2016 06:43 Dry 49.8F - 73F - - - - - - 40 mhos 3682 - None None - -
Date/Time
(MDT)
Sf
Temp Chem Water Layer Surface Precipitation
Sfc Pvt Sub Frz Factor Pct Dpth DpthThk IcePct Cond Salin FI Type Intens Accum Rate
08/30/2016 06:40 Dry 50.0F - 73F - - - - - - 40 mhos 3674 - None None - -
08/30/2016 06:33 Dry 50.0F - 73F - - - - - - 40 mhos 3667 - None None - -
08/30/2016 06:25 Dry 50.2F - 73F - - - - - - 40 mhos 3629 - None None - -
08/30/2016 06:23 Dry 50.2F - 73F - - - - - - 40 mhos 3629 - None None - -
08/30/2016 06:13 Dry 50.7F - 73F - - - - - - 40 mhos 3607 - None None - -
08/30/2016 06:10 Dry 50.9F - 73F - - - - - - 40 mhos 3600 - None None - -
08/30/2016 06:03 Dry 51.1F - 73F - - - - - - 40 mhos 3593 - None None - -
08/30/2016 05:55 Dry 51.3F - 73F - - - - - - 40 mhos 3579 - None None - -
08/30/2016 05:53 Dry 51.4F - 73F - - - - - - 40 mhos 3571 - None None - -
08/30/2016 05:43 Dry 51.6F - 73F - - - - - - 40 mhos 3564 - None None - -
08/30/2016 05:40 Dry 51.6F - 73F - - - - - - 40 mhos 3564 - None None - -
08/30/2016 05:33 Dry 51.8F - 73F - - - - - - 40 mhos 3557 - None None - -
08/30/2016 05:25 Dry 52.0F - 73F - - - - - - 40 mhos 3550 - None None - -
08/30/2016 05:23 Dry 52.2F - 73F - - - - - - 40 mhos 3543 - None None - -
08/30/2016 05:13 Dry 52.2F - 73F - - - - - - 40 mhos 3543 - None None - -
Date/Time
(MDT)
Sf
Temp Chem Water Layer Surface Precipitation
Sfc Pvt Sub Frz Factor Pct Dpth DpthThk IcePct Cond Salin FI Type Intens Accum Rate
08/30/2016 05:10 Dry 52.2F - 73F - - - - - - 40 mhos 3543 - None None - -
08/30/2016 05:03 Dry 52.2F - 73F - - - - - - 40 mhos 3543 - None None - -
08/30/2016 04:55 Dry 52.3F - 74F - - - - - - 40 mhos 3536 - None None - -
08/30/2016 04:52 Dry 52.3F - 74F - - - - - - 40 mhos 3536 - None None - -
08/30/2016 04:42 Dry 52.5F - 74F - - - - - - 40 mhos 3522 - None None - -
08/30/2016 04:40 Dry 52.5F - 74F - - - - - - 40 mhos 3522 - None None - -
08/30/2016 04:32 Dry 52.5F - 74F - - - - - - 40 mhos 3526 - None None - -
08/30/2016 04:25 Dry 52.9F - 74F - - - - - - 40 mhos 3509 - None None - -
08/30/2016 04:22 Dry 53.1F - 74F - - - - - - 40 mhos 3502 - None None - -
08/30/2016 04:12 Dry 53.2F - 74F - - - - - - 40 mhos 3495 - None None - -
08/30/2016 04:10 Dry 53.1F - 74F - - - - - - 40 mhos 3499 - None None - -
08/30/2016 04:02 Dry 53.4F - 74F - - - - - - 40 mhos 3488 - None None - -
08/30/2016 03:55 Dry 53.6F - 74F - - - - - - 40 mhos 3482 - None None - -
08/30/2016 03:52 Dry 53.8F - 74F - - - - - - 40 mhos 3475 - None None - -
08/30/2016 03:42 Dry 53.8F - 74F - - - - - - 40 mhos 3468 - None None - -
Date/Time
(MDT)
Sf
Temp Chem Water Layer Surface Precipitation
Sfc Pvt Sub Frz Factor Pct Dpth DpthThk IcePct Cond Salin FI Type Intens Accum Rate
08/30/2016 03:40 Dry 54.0F - 74F - - - - - - 40 mhos 3434 - None None - -
08/30/2016 03:32 Dry 54.3F - 74F - - - - - - 40 mhos 3448 - None None - -
08/30/2016 03:25 Dry 54.7F - 74F - - - - - - 40 mhos 3407 - None None - -
08/30/2016 03:22 Dry 54.7F - 74F - - - - - - 40 mhos 3407 - None None - -
08/30/2016 03:12 Dry 54.9F - 74F - - - - - - 40 mhos 3401 - None None - -
08/30/2016 03:10 Dry 55.0F - 74F - - - - - - 40 mhos 3395 - None None - -
08/30/2016 03:02 Dry 55.2F - 74F - - - - - - 40 mhos 3382 - None None - -
08/30/2016 02:55 Dry 55.6F - 74F - - - - - - 40 mhos 3369 - None None - -
08/30/2016 02:52 Dry 55.8F - 74F - - - - - - 40 mhos 3363 - None None - -
08/30/2016 02:42 Dry 56.1F - 74F - - - - - - 40 mhos 3350 - None None - -
08/30/2016 02:40 Dry 56.1F - 74F - - - - - - 40 mhos 3350 - None None - -
08/30/2016 02:32 Dry 56.5F - 74F - - - - - - 40 mhos 3332 - None None - -
08/30/2016 02:25 Dry 56.7F - 74F - - - - - - 40 mhos 3326 - None None - -
08/30/2016 02:22 Dry 56.8F - 74F - - - - - - 40 mhos 3319 - None None - -
08/30/2016 02:12 Dry 57.2F - 74F - - - - - - 40 mhos 3307 - None None - -
Date/Time
(MDT)
Sf
Temp Chem Water Layer Surface Precipitation
Sfc Pvt Sub Frz Factor Pct Dpth DpthThk IcePct Cond Salin FI Type Intens Accum Rate
08/30/2016 02:10 Dry 57.4F - 74F - - - - - - 40 mhos 3301 - None None - -
08/30/2016 02:02 Dry 57.6F - 74F - - - - - - 40 mhos 3289 - None None - -
08/30/2016 01:55 Dry 57.7F - 74F - - - - - - 40 mhos 3257 - None None - -
08/30/2016 01:52 Dry 57.7F - 75F - - - - - - 40 mhos 3283 - None None - -
08/30/2016 01:42 Dry 58.3F - 75F - - - - - - 40 mhos 3265 - None None - -
08/30/2016 01:40 Dry 58.5F - 75F - - - - - - 40 mhos 3233 - None None - -
08/30/2016 01:31 Dry 58.6F - 75F - - - - - - 40 mhos 3222 - None None - -
08/30/2016 01:25 Dry 59.0F - 75F - - - - - - 40 mhos 3210 - None None - -
08/30/2016 01:21 Dry 59.0F - 75F - - - - - - 40 mhos 3210 - None None - -
08/30/2016 01:11 Dry 59.5F - 75F - - - - - - 40 mhos 3193 - None None - -
08/30/2016 01:10 Dry 59.7F - 75F - - - - - - 40 mhos 3187 - None None - -
08/30/2016 01:01 Dry 59.7F - 75F - - - - - - 40 mhos 3187 - None None - -
08/30/2016 00:55 Dry 59.9F - 75F - - - - - - 40 mhos 3176 - None None - -
08/30/2016 00:51 Dry 60.1F - 75F - - - - - - 40 mhos 3170 - None None - -
08/30/2016 00:41 Dry 60.4F - 75F - - - - - - 40 mhos 3159 - None None - -
Date/Time
(MDT)
Sf
Temp Chem Water Layer Surface Precipitation
Sfc Pvt Sub Frz Factor Pct Dpth DpthThk IcePct Cond Salin FI Type Intens Accum Rate
08/30/2016 00:40 Dry 60.6F - 75F - - - - - - 40 mhos 3154 - None None - -
08/30/2016 00:31 Dry 61.0F - 75F - - - - - - 40 mhos 3143 - None None - -
08/30/2016 00:25 Dry 61.5F - 75F - - - - - - 40 mhos 3121 - None None - -
08/30/2016 00:21 Dry 61.7F - 75F - - - - - - 39 mhos 3091 - None None - -
08/30/2016 00:11 Dry 61.9F - 75F - - - - - - 40 mhos 3110 - None None - -
08/30/2016 00:10 Dry 61.9F - 75F - - - - - - 39 mhos 3086 - None None - -
08/30/2016 00:01 Dry 62.1F - 75F - - - - - - 39 mhos 3075 - None None - -
08/29/2016 23:55 Dry 62.1F - 75F - - - - - - 39 mhos 3075 - None None - -
08/29/2016 23:51 Dry 62.2F - 75F - - - - - - 39 mhos 3070 - None None - -
08/29/2016 23:41 Dry 62.8F - 75F - - - - - - 39 mhos 3054 - None None - -
08/29/2016 23:40 Dry 63.0F - 75F - - - - - - 39 mhos 3049 - None None - -
08/29/2016 23:31 Dry 63.3F - 75F - - - - - - 39 mhos 3033 - None None - -
08/29/2016 23:25 Dry 63.5F - 75F - - - - - - 39 mhos 3028 - None None - -
08/29/2016 23:21 Dry 63.7F - 75F - - - - - - 39 mhos 3023 - None None - -
08/29/2016 23:11 Dry 63.9F - 75F - - - - - - 39 mhos 3018 - None None - -
Date/Time
(MDT)
Sf
Temp Chem Water Layer Surface Precipitation
Sfc Pvt Sub Frz Factor Pct Dpth DpthThk IcePct Cond Salin FI Type Intens Accum Rate
08/29/2016 23:10 Dry 63.9F - 75F - - - - - - 39 mhos 3018 - None None - -
08/29/2016 23:01 Dry 64.4F - 75F - - - - - - 39 mhos 2980 - None None - -
08/29/2016 22:55 Dry 64.6F - 75F - - - - - - 39 mhos 2993 - None None - -
08/29/2016 22:51 Dry 64.9F - 75F - - - - - - 39 mhos 2960 - None None - -
08/29/2016 22:41 Dry 65.3F - 75F - - - - - - 39 mhos 2950 - None None - -
08/29/2016 22:40 Dry 65.5F - 75F - - - - - - 39 mhos 2945 - None None - -
08/29/2016 22:30 Dry 65.8F - 75F - - - - - - 39 mhos 2931 - None None - -
08/29/2016 22:25 Dry 66.2F - 75F - - - - - - 39 mhos 2921 - None None - -
08/29/2016 22:20 Dry 66.6F - 75F - - - - - - 39 mhos 2912 - None None - -
08/29/2016 22:10 Dry 67.1F - 75F - - - - - - 39 mhos 2893 - None None - -
08/29/2016 22:10 Dry 67.1F - 75F - - - - - - 39 mhos 2893 - None None - -
08/29/2016 22:00 Dry 67.3F - 75F - - - - - - 39 mhos 2888 - None None - -
08/29/2016 21:55 Dry 67.5F - 75F - - - - - - 39 mhos 2862 - None None - -
08/29/2016 21:50 Dry 67.8F - 75F - - - - - - 39 mhos 2852 - None None - -
08/29/2016 21:40 Dry 68.0F - 75F - - - - - - 39 mhos 2843 - None None - -
Date/Time
(MDT)
Sf
Temp Chem Water Layer Surface Precipitation
Sfc Pvt Sub Frz Factor Pct Dpth DpthThk IcePct Cond Salin FI Type Intens Accum Rate
08/29/2016 21:40 Dry 68.0F - 75F - - - - - - 39 mhos 2843 - None None - -
08/29/2016 21:30 Dry 68.2F - 75F - - - - - - 39 mhos 2839 - None None - -
08/29/2016 21:25 Dry 68.4F - 75F - - - - - - 39 mhos 2834 - None None - -
08/29/2016 21:20 Dry 68.7F - 75F - - - - - - 39 mhos 2825 - None None - -
08/29/2016 21:10 Dry 69.1F - 75F - - - - - - 39 mhos 2812 - None None - -
08/29/2016 21:10 Dry 69.3F - 75F - - - - - - 39 mhos 2829 - None None - -
08/29/2016 21:00 Dry 69.6F - 75F - - - - - - 38 mhos 2777 - None None - -
08/29/2016 20:55 Dry 70.0F - 75F - - - - - - 38 mhos 2769 - None None - -
08/29/2016 20:50 Dry 70.2F - 74F - - - - - - 38 mhos 2760 - None None - -
08/29/2016 20:40 Dry 70.9F - 74F - - - - - - 38 mhos 2743 - None None - -
08/29/2016 20:40 Dry 71.1F - 74F - - - - - - 38 mhos 2738 - None None - -
08/29/2016 20:30 Dry 71.8F - 74F - - - - - - 38 mhos 2697 - None None - -
08/29/2016 20:25 Dry 72.3F - 74F - - - - - - 38 mhos 2685 - None None - -
08/29/2016 20:20 Dry 72.9F - 74F - - - - - - 38 mhos 2669 - None None - -
08/29/2016 20:10 Dry 73.4F - 74F - - - - - - 38 mhos 2652 - None None - -
Date/Time
(MDT)
Sf
Temp Chem Water Layer Surface Precipitation
Sfc Pvt Sub Frz Factor Pct Dpth DpthThk IcePct Cond Salin FI Type Intens Accum Rate
08/29/2016 20:10 Dry 73.4F - 74F - - - - - - 38 mhos 2652 - None None - -
08/29/2016 20:00 Dry 74.7F - 74F - - - - - - 38 mhos 2602 - None None - -
08/29/2016 19:55 Dry 75.2F - 74F - - - - - - 38 mhos 2590 - None None - -
08/29/2016 19:50 Dry 75.9F - 74F - - - - - - 38 mhos 2552 - None None - -
08/29/2016 19:40 Dry 77.5F - 74F - - - - - - 37 mhos 2498 - None None - -
08/29/2016 19:40 Dry 77.5F - 74F - - - - - - 37 mhos 2494 - None None - -
08/29/2016 19:30 Dry 79.7F - 74F - - - - - - 37 mhos 2445 - None None - -
08/29/2016 19:25 Dry 80.4F - 74F - - - - - - 37 mhos 2414 - None None - -
08/29/2016 19:19 Dry 81.0F - 74F - - - - - - 37 mhos 2400 - None None - -
08/29/2016 19:10 Dry 80.8F - 74F - - - - - - 37 mhos 2407 - None None - -
08/29/2016 19:09 Dry 80.8F - 74F - - - - - - 37 mhos 2387 - None None - -
08/29/2016 18:59 Dry 82.8F - 74F - - - - - - 37 mhos 2344 - None None - -
08/29/2016 18:55 Dry 82.6F - 73F - - - - - - 37 mhos 2334 - None None - -
08/29/2016 18:49 Dry 83.5F - 73F - - - - - - 37 mhos 2315 - None None - -
08/29/2016 18:40 Dry 85.1F - 73F - - - - - - 36 mhos 2265 - None None - -
Date/Time
(MDT)
Sf
Temp Chem Water Layer Surface Precipitation
Sfc Pvt Sub Frz Factor Pct Dpth DpthThk IcePct Cond Salin FI Type Intens Accum Rate
08/29/2016 18:39 Dry 85.5F - 73F - - - - - - 36 mhos 2259 - None None - -
08/29/2016 18:29 Dry 86.4F - 73F - - - - - - 36 mhos 2242 - None None - -
08/29/2016 18:25 Dry 86.7F - 73F - - - - - - 36 mhos 2236 - None None - -
08/29/2016 18:19 Dry 86.0F - 73F - - - - - - 36 mhos 2247 - None None - -
08/29/2016 18:10 Dry 85.3F - 73F - - - - - - 36 mhos 2262 - None None - -
08/29/2016 18:09 Dry 85.3F - 73F - - - - - - 36 mhos 2262 - None None - -
08/29/2016 17:59 Dry 85.6F - 73F - - - - - - 36 mhos 2256 - None None - -
08/29/2016 17:55 Dry 86.0F - 73F - - - - - - 36 mhos 2232 - None None - -
08/29/2016 17:49 Dry 86.4F - 73F - - - - - - 36 mhos 2226 - None None - -
08/29/2016 17:40 Dry 87.3F - 73F - - - - - - 15 mhos 892 - None None - -
08/29/2016 17:39 Dry 87.6F - 73F - - - - - - 36 mhos 2188 - None None - -
08/29/2016 17:29 Dry 89.1F - 72F - - - - - - 36 mhos 2145 - None None - -
08/29/2016 17:25 Dry 90.0F - 72F - - - - - - 36 mhos 2115 - None None - -
08/29/2016 17:19 Dry 90.9F - 72F - - - - - - 36 mhos 2099 - None None - -
08/29/2016 17:10 Dry 92.5F - 72F - - - - - - 35 mhos 2056 - None None - -
Date/Time
(MDT)
Sf
Temp Chem Water Layer Surface Precipitation
Sfc Pvt Sub Frz Factor Pct Dpth DpthThk IcePct Cond Salin FI Type Intens Accum Rate
08/29/2016 17:09 Dry 92.7F - 72F - - - - - - 35 mhos 2054 - None None - -
08/29/2016 16:59 Dry 96.3F - 72F - - - - - - 35 mhos 1970 - None None - -
08/29/2016 16:55 Dry 94.8F - 72F - - - - - - 35 mhos 2005 - None None - -
08/29/2016 16:49 Dry 93.6F - 72F - - - - - - 35 mhos 2025 - None None - -
08/29/2016 16:40 Dry 95.9F - 72F - - - - - - 35 mhos 1975 - None None - -
08/29/2016 16:39 Dry 95.7F - 72F - - - - - - 35 mhos 1977 - None None - -
08/29/2016 16:29 Dry 95.9F - 72F - - - - - - 35 mhos 1962 - None None - -
08/29/2016 16:25 Dry 97.3F - 71F - - - - - - 34 mhos 1928 - None None - -
08/29/2016 16:19 Dry 99.0F - 71F - - - - - - 34 mhos 1903 - None None - -
08/29/2016 16:10 Dry 98.4F - 71F - - - - - - 34 mhos 1912 - None None - -
08/29/2016 16:09 Dry 97.9F - 71F - - - - - - 34 mhos 1919 - None None - -
08/29/2016 15:58 Dry 99.1F - 71F - - - - - - 34 mhos 1901 - None None - -
08/29/2016 15:55 Dry 99.1F - 71F - - - - - - 34 mhos 1901 - None None - -
08/29/2016 15:48 Dry 95.2F - 71F - - - - - - 35 mhos 1987 - None None - -
08/29/2016 15:40 Dry 95.0F - 71F - - - - - - 35 mhos 1976 - None None - -
Date/Time
(MDT)
Sf
Temp Chem Water Layer Surface Precipitation
Sfc Pvt Sub Frz Factor Pct Dpth DpthThk IcePct Cond Salin FI Type Intens Accum Rate
08/29/2016 15:38 Dry 95.4F - 71F - - - - - - 35 mhos 1971 - None None - -
08/29/2016 15:28 Dry 99.7F - 71F - - - - - - 34 mhos 1870 - None None - -
08/29/2016 15:25 Dry 99.7F - 71F - - - - - - 34 mhos 1856 - None None - -
08/29/2016 15:18 Dry 103.8F - 71F - - - - - - 33 mhos 1778 - None None - -
08/29/2016 15:10 Dry 109.9F - 71F - - - - - - 33 mhos 1669 - None None - -
08/29/2016 15:08 Dry 109.6F - 71F - - - - - - 33 mhos 1673 - None None - -
08/29/2016 14:58 Dry 104.0F - 71F - - - - - - 34 mhos 1787 - None None - -
08/29/2016 14:55 Dry 103.5F - 70F - - - - - - 33 mhos 1782 - None None - -
08/29/2016 14:48 Dry 106.7F - 70F - - - - - - 33 mhos 1729 - None None - -
08/29/2016 14:40 Dry 104.7F - 70F - - - - - - 33 mhos 1766 - None None - -
08/29/2016 14:38 Dry 104.5F - 70F - - - - - - 33 mhos 1768 - None None - -
08/29/2016 14:28 Dry 105.3F - 70F - - - - - - 33 mhos 1758 - None None - -
08/29/2016 14:25 Dry 104.9F - 70F - - - - - - 34 mhos 1775 - None None - -
08/29/2016 14:18 Dry 103.6F - 70F - - - - - - 34 mhos 1802 - None None - -
08/29/2016 14:10 Dry 102.7F - 70F - - - - - - 34 mhos 1815 - None None - -
Date/Time
(MDT)
Sf
Temp Chem Water Layer Surface Precipitation
Sfc Pvt Sub Frz Factor Pct Dpth DpthThk IcePct Cond Salin FI Type Intens Accum Rate
08/29/2016 14:08 Dry 102.6F - 70F - - - - - - 34 mhos 1829 - None None - -
08/29/2016 13:58 Dry 100.4F - 70F - - - - - - 34 mhos 1871 - None None - -
08/29/2016 13:55 Dry 100.0F - 70F - - - - - - 34 mhos 1875 - None None - -
08/29/2016 13:48 Dry 96.8F - 70F - - - - - - 34 mhos 1935 - None None - -
08/29/2016 13:40 Dry 100.2F - 70F - - - - - - 34 mhos 1861 - None None - -
08/29/2016 13:38 Dry 101.3F - 70F - - - - - - 34 mhos 1834 - None None - -
08/29/2016 13:28 Dry 102.7F - 70F - - - - - - 34 mhos 1815 - None None - -
08/29/2016 13:25 Dry 105.3F - 70F - - - - - - 34 mhos 1771 - None None - -
08/29/2016 13:18 Dry 104.5F - 70F - - - - - - 34 mhos 1779 - None None - -
08/29/2016 13:10 Dry 103.8F - 70F - - - - - - 34 mhos 1800 - None None - -
08/29/2016 13:08 Dry 103.8F - 70F - - - - - - 34 mhos 1800 - None None - -
08/29/2016 12:58 Dry 102.0F - 69F - - - - - - 34 mhos 1835 - None None - -
08/29/2016 12:55 Dry 102.0F - 69F - - - - - - 34 mhos 1847 - None None - -
Change End Date:

Copyright © 1998-2015 Vaisala, Inc.
All Rights Reserved
Send comments about the data to:
SCAN Web ® is a registered trademark of Vaisala, Inc.
SCAN Web Version 6.0